sensor_id;sensor_type;location;lat;lon;timestamp;pressure;altitude;pressure_sealevel;temperature;humidity
55187;BME280;55457;52.002;5.464;2023-04-08T00:00:40;102054.53;;;20.24;42.52
55187;BME280;55457;52.002;5.464;2023-04-08T00:03:05;102050.19;;;20.23;42.52
55187;BME280;55457;52.002;5.464;2023-04-08T00:05:31;102058.31;;;20.23;42.53
55187;BME280;55457;52.002;5.464;2023-04-08T00:07:56;102051.84;;;20.24;42.58
55187;BME280;55457;52.002;5.464;2023-04-08T00:10:21;102059.97;;;20.24;42.60
55187;BME280;55457;52.002;5.464;2023-04-08T00:12:46;102065.38;;;20.24;42.59
55187;BME280;55457;52.002;5.464;2023-04-08T00:15:12;102063.72;;;20.23;42.36
55187;BME280;55457;52.002;5.464;2023-04-08T00:17:37;102058.31;;;20.23;42.51
55187;BME280;55457;52.002;5.464;2023-04-08T00:20:02;102063.72;;;20.23;42.44
55187;BME280;55457;52.002;5.464;2023-04-08T00:22:28;102057.47;;;20.22;42.34
55187;BME280;55457;52.002;5.464;2023-04-08T00:24:53;102052.88;;;20.23;42.44
55187;BME280;55457;52.002;5.464;2023-04-08T00:27:18;102053.72;;;20.23;42.34
55187;BME280;55457;52.002;5.464;2023-04-08T00:29:43;102052.88;;;20.23;42.48
55187;BME280;55457;52.002;5.464;2023-04-08T00:32:09;102058.31;;;20.23;42.45
55187;BME280;55457;52.002;5.464;2023-04-08T00:34:34;102060.41;;;20.21;42.39
55187;BME280;55457;52.002;5.464;2023-04-08T00:36:59;102056.66;;;20.22;42.32
55187;BME280;55457;52.002;5.464;2023-04-08T00:39:25;102057.47;;;20.22;42.30
55187;BME280;55457;52.002;5.464;2023-04-08T00:41:50;102062.06;;;20.22;42.30
55187;BME280;55457;52.002;5.464;2023-04-08T00:44:15;102060.41;;;20.21;42.39
55187;BME280;55457;52.002;5.464;2023-04-08T00:46:41;102063.09;;;20.21;42.27
55187;BME280;55457;52.002;5.464;2023-04-08T00:49:06;102067.47;;;20.22;42.47
55187;BME280;55457;52.002;5.464;2023-04-08T00:51:32;102062.28;;;20.20;42.46
55187;BME280;55457;52.002;5.464;2023-04-08T00:53:57;102058.72;;;20.20;42.22
55187;BME280;55457;52.002;5.464;2023-04-08T00:56:24;102066.66;;;20.21;42.30
55187;BME280;55457;52.002;5.464;2023-04-08T00:58:50;102065.81;;;20.21;42.28
55187;BME280;55457;52.002;5.464;2023-04-08T01:01:25;102067.47;;;20.22;42.36
55187;BME280;55457;52.002;5.464;2023-04-08T01:03:57;102066.66;;;20.21;42.46
55187;BME280;55457;52.002;5.464;2023-04-08T01:09:10;102068.53;;;20.21;42.41
55187;BME280;55457;52.002;5.464;2023-04-08T01:11:37;102072.25;;;20.20;42.37
55187;BME280;55457;52.002;5.464;2023-04-08T01:14:05;102069.53;;;20.20;42.34
55187;BME280;55457;52.002;5.464;2023-04-08T01:16:34;102068.72;;;20.19;42.34
55187;BME280;55457;52.002;5.464;2023-04-08T01:19:01;102075.81;;;20.20;42.27
55187;BME280;55457;52.002;5.464;2023-04-08T01:21:26;102085.78;;;20.20;42.17
55187;BME280;55457;52.002;5.464;2023-04-08T01:24:00;102076.84;;;20.19;42.35
55187;BME280;55457;52.002;5.464;2023-04-08T01:26:28;102081.41;;;20.19;42.42
55187;BME280;55457;52.002;5.464;2023-04-08T01:28:55;102078.72;;;20.19;42.39
55187;BME280;55457;52.002;5.464;2023-04-08T01:31:22;102084.13;;;20.19;42.34
55187;BME280;55457;52.002;5.464;2023-04-08T01:33:48;102083.31;;;20.18;42.27
55187;BME280;55457;52.002;5.464;2023-04-08T01:36:14;102083.31;;;20.18;42.25
55187;BME280;55457;52.002;5.464;2023-04-08T01:38:40;102090.59;;;20.18;42.23
55187;BME280;55457;52.002;5.464;2023-04-08T01:41:05;102089.53;;;20.19;42.20
55187;BME280;55457;52.002;5.464;2023-04-08T01:43:32;102089.53;;;20.19;42.19
55187;BME280;55457;52.002;5.464;2023-04-08T01:45:59;102085.59;;;20.15;42.13
55187;BME280;55457;52.002;5.464;2023-04-08T01:48:25;102082.47;;;20.18;42.04
55187;BME280;55457;52.002;5.464;2023-04-08T01:50:51;102089.75;;;20.17;42.20
55187;BME280;55457;52.002;5.464;2023-04-08T01:53:16;102081.63;;;20.17;42.23
55187;BME280;55457;52.002;5.464;2023-04-08T01:55:42;102087.88;;;20.18;42.18
55187;BME280;55457;52.002;5.464;2023-04-08T01:58:08;102089.53;;;20.19;42.19
55187;BME280;55457;52.002;5.464;2023-04-08T02:00:35;102093.28;;;20.18;42.23
55187;BME280;55457;52.002;5.464;2023-04-08T02:03:01;102087.88;;;20.18;42.23
55187;BME280;55457;52.002;5.464;2023-04-08T02:05:27;102087.88;;;20.18;42.20
55187;BME280;55457;52.002;5.464;2023-04-08T02:07:52;102082.88;;;20.15;42.21
55187;BME280;55457;52.002;5.464;2023-04-08T02:10:17;102083.53;;;20.17;42.16
55187;BME280;55457;52.002;5.464;2023-04-08T02:12:43;102080.81;;;20.17;42.17
55187;BME280;55457;52.002;5.464;2023-04-08T02:15:08;102083.53;;;20.17;42.33
55187;BME280;55457;52.002;5.464;2023-04-08T02:20:06;102080.81;;;20.17;42.16
55187;BME280;55457;52.002;5.464;2023-04-08T02:22:40;102077.06;;;20.18;42.19
55187;BME280;55457;52.002;5.464;2023-04-08T02:25:07;102079.75;;;20.18;42.13
55187;BME280;55457;52.002;5.464;2023-04-08T02:27:35;102090.59;;;20.18;42.18
55187;BME280;55457;52.002;5.464;2023-04-08T02:30:02;102094.13;;;20.18;42.18
55187;BME280;55457;52.002;5.464;2023-04-08T02:32:28;102091.41;;;20.18;42.05
55187;BME280;55457;52.002;5.464;2023-04-08T02:34:55;102090.38;;;20.19;42.03
55187;BME280;55457;52.002;5.464;2023-04-08T02:37:20;102088.72;;;20.18;42.13
55187;BME280;55457;52.002;5.464;2023-04-08T02:39:45;102089.53;;;20.19;42.18
55187;BME280;55457;52.002;5.464;2023-04-08T02:42:11;102089.53;;;20.19;42.11
55187;BME280;55457;52.002;5.464;2023-04-08T02:44:36;102094.94;;;20.19;42.08
55187;BME280;55457;52.002;5.464;2023-04-08T02:47:01;102097.66;;;20.19;42.04
55187;BME280;55457;52.002;5.464;2023-04-08T02:49:26;102099.31;;;20.20;42.20
55187;BME280;55457;52.002;5.464;2023-04-08T02:51:51;102104.94;;;20.18;42.04
55187;BME280;55457;52.002;5.464;2023-04-08T02:54:17;102099.31;;;20.20;42.04
55187;BME280;55457;52.002;5.464;2023-04-08T02:56:42;102096.63;;;20.20;41.94
55187;BME280;55457;52.002;5.464;2023-04-08T02:59:07;102101.19;;;20.19;42.07
55187;BME280;55457;52.002;5.464;2023-04-08T03:01:32;102101.19;;;20.19;42.12
55187;BME280;55457;52.002;5.464;2023-04-08T03:03:57;102102.25;;;20.18;41.93
55187;BME280;55457;52.002;5.464;2023-04-08T03:06:23;102105.78;;;20.19;42.06
55187;BME280;55457;52.002;5.464;2023-04-08T03:08:48;102107.44;;;20.20;41.98
55187;BME280;55457;52.002;5.464;2023-04-08T03:11:13;102105.78;;;20.19;42.06
55187;BME280;55457;52.002;5.464;2023-04-08T03:13:38;102111.19;;;20.19;41.93
55187;BME280;55457;52.002;5.464;2023-04-08T03:16:03;102111.19;;;20.19;42.12
55187;BME280;55457;52.002;5.464;2023-04-08T03:18:29;102106.59;;;20.19;41.96
55187;BME280;55457;52.002;5.464;2023-04-08T03:20:54;102112.03;;;20.19;41.92
55187;BME280;55457;52.002;5.464;2023-04-08T03:23:19;102113.91;;;20.19;42.05
55187;BME280;55457;52.002;5.464;2023-04-08T03:25:45;102109.53;;;20.18;42.04
55187;BME280;55457;52.002;5.464;2023-04-08T03:28:10;102111.19;;;20.19;42.12
55187;BME280;55457;52.002;5.464;2023-04-08T03:30:36;102116.59;;;20.19;42.04
55187;BME280;55457;52.002;5.464;2023-04-08T03:33:01;102110.38;;;20.18;42.07
55187;BME280;55457;52.002;5.464;2023-04-08T03:35:27;102110.38;;;20.18;42.04
55187;BME280;55457;52.002;5.464;2023-04-08T03:37:52;102109.53;;;20.18;42.08
55187;BME280;55457;52.002;5.464;2023-04-08T03:40:19;102114.94;;;20.18;42.05
55187;BME280;55457;52.002;5.464;2023-04-08T03:42:44;102115.78;;;20.18;42.12
55187;BME280;55457;52.002;5.464;2023-04-08T03:45:09;102108.28;;;20.14;41.93
55187;BME280;55457;52.002;5.464;2023-04-08T03:47:34;102125.78;;;20.18;41.99
55187;BME280;55457;52.002;5.464;2023-04-08T03:50:00;102131.19;;;20.18;41.91
55187;BME280;55457;52.002;5.464;2023-04-08T03:52:25;102125.78;;;20.18;42.04
55187;BME280;55457;52.002;5.464;2023-04-08T03:54:50;102132.84;;;20.19;41.90
55187;BME280;55457;52.002;5.464;2023-04-08T03:57:15;102134.72;;;20.18;41.90
55187;BME280;55457;52.002;5.464;2023-04-08T03:59:40;102132.03;;;20.18;42.00
55187;BME280;55457;52.002;5.464;2023-04-08T04:02:06;102130.97;;;20.19;41.93
55187;BME280;55457;52.002;5.464;2023-04-08T04:04:31;102139.91;;;20.20;41.91
55187;BME280;55457;52.002;5.464;2023-04-08T04:06:57;102137.44;;;20.18;42.02
55187;BME280;55457;52.002;5.464;2023-04-08T04:09:22;102145.34;;;20.20;42.01
55187;BME280;55457;52.002;5.464;2023-04-08T04:11:48;102138.25;;;20.19;41.79
55187;BME280;55457;52.002;5.464;2023-04-08T04:14:13;102144.31;;;20.21;41.93
55187;BME280;55457;52.002;5.464;2023-04-08T04:16:38;102143.50;;;20.20;41.84
55187;BME280;55457;52.002;5.464;2023-04-08T04:19:03;102146.19;;;20.20;41.80
55187;BME280;55457;52.002;5.464;2023-04-08T04:21:28;102149.09;;;20.19;41.93
55187;BME280;55457;52.002;5.464;2023-04-08T04:23:54;102157.84;;;20.21;41.88
55187;BME280;55457;52.002;5.464;2023-04-08T04:26:19;102151.59;;;20.20;41.89
55187;BME280;55457;52.002;5.464;2023-04-08T04:28:45;102150.75;;;20.20;41.82
55187;BME280;55457;52.002;5.464;2023-04-08T04:31:19;102156.16;;;20.20;41.83
55187;BME280;55457;52.002;5.464;2023-04-08T04:33:45;102168.69;;;20.21;41.86
55187;BME280;55457;52.002;5.464;2023-04-08T04:36:11;102164.91;;;20.22;41.98
55187;BME280;55457;52.002;5.464;2023-04-08T04:38:36;102164.91;;;20.22;41.91
55187;BME280;55457;52.002;5.464;2023-04-08T04:41:02;102168.69;;;20.21;41.75
55187;BME280;55457;52.002;5.464;2023-04-08T04:43:28;102173.88;;;20.22;41.82
55187;BME280;55457;52.002;5.464;2023-04-08T04:45:53;102174.91;;;20.21;41.86
55187;BME280;55457;52.002;5.464;2023-04-08T04:48:19;102184.69;;;20.22;41.78
55187;BME280;55457;52.002;5.464;2023-04-08T04:50:44;102190.34;;;20.21;41.96
55187;BME280;55457;52.002;5.464;2023-04-08T04:53:18;102180.34;;;20.21;41.95
55187;BME280;55457;52.002;5.464;2023-04-08T04:55:43;102183.88;;;20.22;41.78
55187;BME280;55457;52.002;5.464;2023-04-08T04:58:08;102188.22;;;20.23;41.87
55187;BME280;55457;52.002;5.464;2023-04-08T05:00:33;102185.75;;;20.21;41.86
55187;BME280;55457;52.002;5.464;2023-04-08T05:02:58;102191.16;;;20.21;41.90
55187;BME280;55457;52.002;5.464;2023-04-08T05:05:24;102192.00;;;20.22;41.77
55187;BME280;55457;52.002;5.464;2023-04-08T05:07:50;102186.56;;;20.22;41.82
55187;BME280;55457;52.002;5.464;2023-04-08T05:10:15;102187.63;;;20.21;41.69
55187;BME280;55457;52.002;5.464;2023-04-08T05:12:40;102185.75;;;20.21;41.69
55187;BME280;55457;52.002;5.464;2023-04-08T05:15:06;102192.00;;;20.22;41.81
55187;BME280;55457;52.002;5.464;2023-04-08T05:17:31;102202.81;;;20.22;41.75
55187;BME280;55457;52.002;5.464;2023-04-08T05:19:56;102202.81;;;20.22;41.74
55187;BME280;55457;52.002;5.464;2023-04-08T05:22:21;102198.22;;;20.22;41.78
55187;BME280;55457;52.002;5.464;2023-04-08T05:24:47;102202.00;;;20.21;41.69
55187;BME280;55457;52.002;5.464;2023-04-08T05:27:12;102202.81;;;20.22;41.64
55187;BME280;55457;52.002;5.464;2023-04-08T05:29:38;102200.13;;;20.22;41.62
55187;BME280;55457;52.002;5.464;2023-04-08T05:32:03;102206.34;;;20.22;41.78
55187;BME280;55457;52.002;5.464;2023-04-08T05:34:30;102200.13;;;20.22;41.63
55187;BME280;55457;52.002;5.464;2023-04-08T05:36:55;102209.06;;;20.22;41.61
55187;BME280;55457;52.002;5.464;2023-04-08T05:39:20;102208.22;;;20.22;41.79
55187;BME280;55457;52.002;5.464;2023-04-08T05:41:46;102209.06;;;20.22;41.72
55187;BME280;55457;52.002;5.464;2023-04-08T05:44:11;102219.06;;;20.22;41.71
55187;BME280;55457;52.002;5.464;2023-04-08T05:46:37;102222.81;;;20.21;41.77
55187;BME280;55457;52.002;5.464;2023-04-08T05:49:02;102225.31;;;20.22;41.79
55187;BME280;55457;52.002;5.464;2023-04-08T05:51:27;102229.88;;;20.22;41.60
55187;BME280;55457;52.002;5.464;2023-04-08T05:53:52;102232.59;;;20.22;41.67
55187;BME280;55457;52.002;5.464;2023-04-08T05:56:18;102227.19;;;20.22;41.63
55187;BME280;55457;52.002;5.464;2023-04-08T05:58:43;102229.88;;;20.22;41.70
55187;BME280;55457;52.002;5.464;2023-04-08T06:01:08;102229.88;;;20.22;41.60
55187;BME280;55457;52.002;5.464;2023-04-08T06:03:33;102227.19;;;20.22;41.71
55187;BME280;55457;52.002;5.464;2023-04-08T06:05:59;102235.31;;;20.22;41.61
55187;BME280;55457;52.002;5.464;2023-04-08T06:08:24;102242.38;;;20.23;41.63
55187;BME280;55457;52.002;5.464;2023-04-08T06:10:50;102243.44;;;20.22;41.74
55187;BME280;55457;52.002;5.464;2023-04-08T06:13:15;102235.31;;;20.22;41.58
55187;BME280;55457;52.002;5.464;2023-04-08T06:15:41;102240.72;;;20.22;41.78
55187;BME280;55457;52.002;5.464;2023-04-08T06:18:06;102239.88;;;20.21;41.76
55187;BME280;55457;52.002;5.464;2023-04-08T06:20:31;102246.13;;;20.22;41.78
55187;BME280;55457;52.002;5.464;2023-04-08T06:22:57;102245.09;;;20.23;41.68
55187;BME280;55457;52.002;5.464;2023-04-08T06:25:22;102245.91;;;20.23;41.55
55187;BME280;55457;52.002;5.464;2023-04-08T06:27:47;102256.75;;;20.23;41.67
55187;BME280;55457;52.002;5.464;2023-04-08T06:30:13;102260.28;;;20.24;41.80
55187;BME280;55457;52.002;5.464;2023-04-08T06:32:38;102261.94;;;20.25;41.81
55187;BME280;55457;52.002;5.464;2023-04-08T06:35:03;102268.19;;;20.25;41.80
55187;BME280;55457;52.002;5.464;2023-04-08T06:37:28;102266.34;;;20.26;42.15
55187;BME280;55457;52.002;5.464;2023-04-08T06:39:54;102268.00;;;20.27;41.97
55187;BME280;55457;52.002;5.464;2023-04-08T06:42:19;102267.78;;;20.28;42.08
55187;BME280;55457;52.002;5.464;2023-04-08T06:44:44;102275.69;;;20.30;42.22
55187;BME280;55457;52.002;5.464;2023-04-08T06:47:09;102278.38;;;20.30;42.32
55187;BME280;55457;52.002;5.464;2023-04-08T06:49:35;102279.03;;;20.32;42.25
55187;BME280;55457;52.002;5.464;2023-04-08T06:52:01;102286.09;;;20.33;42.31
55187;BME280;55457;52.002;5.464;2023-04-08T06:54:26;102285.06;;;20.34;42.30
55187;BME280;55457;52.002;5.464;2023-04-08T06:56:51;102279.66;;;20.34;42.23
55187;BME280;55457;52.002;5.464;2023-04-08T06:59:17;102284.00;;;20.35;42.17
55187;BME280;55457;52.002;5.464;2023-04-08T07:01:42;102284.84;;;20.36;42.33
55187;BME280;55457;52.002;5.464;2023-04-08T07:04:07;102286.53;;;20.37;42.23
55187;BME280;55457;52.002;5.464;2023-04-08T07:06:32;102300.91;;;20.37;42.43
55187;BME280;55457;52.002;5.464;2023-04-08T07:08:57;102303.41;;;20.39;42.42
55187;BME280;55457;52.002;5.464;2023-04-08T07:11:23;102296.09;;;20.39;42.31
55187;BME280;55457;52.002;5.464;2023-04-08T07:13:48;102303.19;;;20.40;42.30
55187;BME280;55457;52.002;5.464;2023-04-08T07:16:13;102309.41;;;20.41;42.31
55187;BME280;55457;52.002;5.464;2023-04-08T07:18:38;102310.28;;;20.41;42.39
55187;BME280;55457;52.002;5.464;2023-04-08T07:21:05;102308.41;;;20.42;42.56
55187;BME280;55457;52.002;5.464;2023-04-08T07:23:31;102318.19;;;20.43;42.49
55187;BME280;55457;52.002;5.464;2023-04-08T07:26:00;102321.72;;;20.43;42.52
55187;BME280;55457;52.002;5.464;2023-04-08T07:28:25;102320.69;;;20.44;42.36
55187;BME280;55457;52.002;5.464;2023-04-08T07:30:51;102325.03;;;20.45;42.33
55187;BME280;55457;52.002;5.464;2023-04-08T07:33:16;102325.72;;;20.47;42.43
55187;BME280;55457;52.002;5.464;2023-04-08T07:35:41;102314.88;;;20.47;42.38
55187;BME280;55457;52.002;5.464;2023-04-08T07:38:06;102321.75;;;20.50;42.45
55187;BME280;55457;52.002;5.464;2023-04-08T07:40:35;102324.47;;;20.50;42.31
55187;BME280;55457;52.002;5.464;2023-04-08T07:43:00;102329.66;;;20.51;42.42
55187;BME280;55457;52.002;5.464;2023-04-08T07:45:25;102323.22;;;20.52;42.43
55187;BME280;55457;52.002;5.464;2023-04-08T07:47:51;102324.06;;;20.53;42.46
55187;BME280;55457;52.002;5.464;2023-04-08T07:50:16;102331.97;;;20.54;42.41
55187;BME280;55457;52.002;5.464;2023-04-08T07:52:41;102330.91;;;20.55;42.31
55187;BME280;55457;52.002;5.464;2023-04-08T07:55:07;102336.97;;;20.57;42.26
55187;BME280;55457;52.002;5.464;2023-04-08T07:57:32;102334.25;;;20.57;42.38
55187;BME280;55457;52.002;5.464;2023-04-08T07:59:57;102335.72;;;20.60;42.17
55187;BME280;55457;52.002;5.464;2023-04-08T08:02:23;102339.06;;;20.62;42.42
55187;BME280;55457;52.002;5.464;2023-04-08T08:04:48;102336.13;;;20.64;42.34
55187;BME280;55457;52.002;5.464;2023-04-08T08:07:13;102336.97;;;20.64;42.23
55187;BME280;55457;52.002;5.464;2023-04-08T08:09:39;102337.56;;;20.66;42.23
55187;BME280;55457;52.002;5.464;2023-04-08T08:12:04;102341.94;;;20.67;42.34
55187;BME280;55457;52.002;5.464;2023-04-08T08:14:29;102342.81;;;20.68;42.38
55187;BME280;55457;52.002;5.464;2023-04-08T08:16:55;102339.03;;;20.69;42.18
55187;BME280;55457;52.002;5.464;2023-04-08T08:19:20;102340.50;;;20.71;42.24
55187;BME280;55457;52.002;5.464;2023-04-08T08:21:46;102335.72;;;20.73;42.38
55187;BME280;55457;52.002;5.464;2023-04-08T08:24:11;102339.88;;;20.76;42.38
55187;BME280;55457;52.002;5.464;2023-04-08T08:26:36;102342.16;;;20.79;42.32
55187;BME280;55457;52.002;5.464;2023-04-08T08:29:02;102337.34;;;20.81;42.22
55187;BME280;55457;52.002;5.464;2023-04-08T08:31:27;102341.53;;;20.83;42.16
55187;BME280;55457;52.002;5.464;2023-04-08T08:33:52;102343.81;;;20.87;42.02
55187;BME280;55457;52.002;5.464;2023-04-08T08:36:17;102341.53;;;20.90;42.03
55187;BME280;55457;52.002;5.464;2023-04-08T08:38:43;102345.50;;;20.94;42.18
55187;BME280;55457;52.002;5.464;2023-04-08T08:41:08;102342.34;;;20.97;41.96
55187;BME280;55457;52.002;5.464;2023-04-08T08:43:33;102348.19;;;21.01;42.00
55187;BME280;55457;52.002;5.464;2023-04-08T08:45:59;102344.19;;;21.03;41.79
55187;BME280;55457;52.002;5.464;2023-04-08T08:48:24;102349.81;;;21.08;41.73
55187;BME280;55457;52.002;5.464;2023-04-08T08:50:50;102356.47;;;21.13;41.62
55187;BME280;55457;52.002;5.464;2023-04-08T08:53:15;102364.22;;;21.16;41.83
55187;BME280;55457;52.002;5.464;2023-04-08T08:55:40;102359.16;;;21.19;41.78
55187;BME280;55457;52.002;5.464;2023-04-08T08:58:06;102363.13;;;21.23;41.69
55187;BME280;55457;52.002;5.464;2023-04-08T09:00:32;102362.50;;;21.28;41.75
55187;BME280;55457;52.002;5.464;2023-04-08T09:03:12;102360.47;;;21.30;41.46
55187;BME280;55457;52.002;5.464;2023-04-08T09:05:46;102367.09;;;21.34;41.43
55187;BME280;55457;52.002;5.464;2023-04-08T09:08:31;102352.94;;;21.32;41.59
55187;BME280;55457;52.002;5.464;2023-04-08T09:13:37;102363.72;;;21.45;41.32
55187;BME280;55457;52.002;5.464;2023-04-08T09:16:03;102369.56;;;21.49;41.28
55187;BME280;55457;52.002;5.464;2023-04-08T09:18:29;102370.81;;;21.53;41.25
55187;BME280;55457;52.002;5.464;2023-04-08T09:20:54;102364.09;;;21.55;41.51
55187;BME280;55457;52.002;5.464;2023-04-08T09:23:20;102363.47;;;21.60;41.04
55187;BME280;55457;52.002;5.464;2023-04-08T09:25:45;102369.28;;;21.63;41.35
55187;BME280;55457;52.002;5.464;2023-04-08T09:28:19;102370.53;;;21.68;40.93
55187;BME280;55457;52.002;5.464;2023-04-08T09:30:47;102370.09;;;21.71;40.88
55187;BME280;55457;52.002;5.464;2023-04-08T09:33:13;102368.63;;;21.75;41.01
55187;BME280;55457;52.002;5.464;2023-04-08T09:35:38;102368.78;;;21.80;41.02
55187;BME280;55457;52.002;5.464;2023-04-08T09:38:03;102373.81;;;21.83;40.96
55187;BME280;55457;52.002;5.464;2023-04-08T09:40:29;102370.44;;;21.87;41.14
55187;BME280;55457;52.002;5.464;2023-04-08T09:42:58;102377.91;;;21.92;40.71
55187;BME280;55457;52.002;5.464;2023-04-08T09:45:28;102379.16;;;21.96;40.87
55187;BME280;55457;52.002;5.464;2023-04-08T09:47:55;102376.22;;;21.98;40.61
55187;BME280;55457;52.002;5.464;2023-04-08T09:50:26;102384.53;;;22.03;40.57
55187;BME280;55457;52.002;5.464;2023-04-08T09:52:53;102374.09;;;22.06;40.54
55187;BME280;55457;52.002;5.464;2023-04-08T09:55:21;102373.66;;;22.09;40.70
55187;BME280;55457;52.002;5.464;2023-04-08T09:57:51;102367.81;;;22.12;40.73
55187;BME280;55457;52.002;5.464;2023-04-08T10:00:20;102372.81;;;22.16;40.79
55187;BME280;55457;52.002;5.464;2023-04-08T10:05:12;102380.69;;;22.24;40.32
55187;BME280;55457;52.002;5.464;2023-04-08T10:07:37;102379.44;;;22.26;40.65
55187;BME280;55457;52.002;5.464;2023-04-08T10:10:03;102368.97;;;22.30;40.27
55187;BME280;55457;52.002;5.464;2023-04-08T10:12:29;102363.06;;;22.33;40.20
55187;BME280;55457;52.002;5.464;2023-04-08T10:17:38;102364.72;;;22.40;40.28
55187;BME280;55457;52.002;5.464;2023-04-08T10:20:03;102367.78;;;22.44;40.48
55187;BME280;55457;52.002;5.464;2023-04-08T10:27:41;102369.59;;;22.57;40.28
55187;BME280;55457;52.002;5.464;2023-04-08T10:32:55;102366.56;;;22.65;40.15
55187;BME280;55457;52.002;5.464;2023-04-08T10:35:42;102365.31;;;22.67;40.05
55187;BME280;55457;52.002;5.464;2023-04-08T10:38:07;102360.28;;;22.71;40.10
55187;BME280;55457;52.002;5.464;2023-04-08T10:40:39;102362.31;;;22.76;39.86
55187;BME280;55457;52.002;5.464;2023-04-08T10:43:06;102352.06;;;22.78;39.78
55187;BME280;55457;52.002;5.464;2023-04-08T10:45:32;102361.63;;;22.80;39.79
55187;BME280;55457;52.002;5.464;2023-04-08T10:48:10;102356.59;;;22.84;39.99
55187;BME280;55457;52.002;5.464;2023-04-08T10:50:35;102354.28;;;22.87;39.80
55187;BME280;55457;52.002;5.464;2023-04-08T10:53:00;102347.56;;;22.90;39.92
55187;BME280;55457;52.002;5.464;2023-04-08T10:55:26;102353.41;;;22.94;39.78
55187;BME280;55457;52.002;5.464;2023-04-08T10:57:52;102356.72;;;22.96;39.70
55187;BME280;55457;52.002;5.464;2023-04-08T11:00:19;102354.63;;;22.98;39.76
55187;BME280;55457;52.002;5.464;2023-04-08T11:02:59;102358.75;;;23.00;39.74
55187;BME280;55457;52.002;5.464;2023-04-08T11:05:24;102353.09;;;23.02;39.52
55187;BME280;55457;52.002;5.464;2023-04-08T11:07:49;102357.84;;;23.06;39.52
55187;BME280;55457;52.002;5.464;2023-04-08T11:10:15;102350.53;;;23.07;39.44
55187;BME280;55457;52.002;5.464;2023-04-08T11:12:40;102349.03;;;23.11;39.64
55187;BME280;55457;52.002;5.464;2023-04-08T11:15:05;102354.22;;;23.12;39.60
55187;BME280;55457;52.002;5.464;2023-04-08T11:17:33;102345.63;;;23.15;39.35
55187;BME280;55457;52.002;5.464;2023-04-08T11:19:58;102353.34;;;23.18;39.38
55187;BME280;55457;52.002;5.464;2023-04-08T11:22:27;102343.31;;;23.19;38.53
55187;BME280;55457;52.002;5.464;2023-04-08T11:24:52;102346.38;;;23.23;37.97
55187;BME280;55457;52.002;5.464;2023-04-08T11:27:17;102353.03;;;23.27;38.21
55187;BME280;55457;52.002;5.464;2023-04-08T11:29:43;102347.16;;;23.30;38.10
55187;BME280;55457;52.002;5.464;2023-04-08T11:32:08;102353.19;;;23.32;38.26
55187;BME280;55457;52.002;5.464;2023-04-08T11:34:37;102342.63;;;23.24;38.21
55187;BME280;55457;52.002;5.464;2023-04-08T11:37:02;102352.81;;;23.10;35.80
55187;BME280;55457;52.002;5.464;2023-04-08T11:39:28;102350.00;;;22.98;34.31
55187;BME280;55457;52.002;5.464;2023-04-08T11:41:53;102347.16;;;22.86;33.51
55187;BME280;55457;52.002;5.464;2023-04-08T11:44:19;102348.13;;;22.74;32.85
55187;BME280;55457;52.002;5.464;2023-04-08T11:46:51;102346.13;;;22.62;32.38
55187;BME280;55457;52.002;5.464;2023-04-08T11:49:19;102345.78;;;22.52;31.75
55187;BME280;55457;52.002;5.464;2023-04-08T11:51:57;102340.84;;;22.43;31.73
55187;BME280;55457;52.002;5.464;2023-04-08T11:54:25;102344.69;;;22.35;30.89
55187;BME280;55457;52.002;5.464;2023-04-08T11:56:51;102345.53;;;22.29;30.82
55187;BME280;55457;52.002;5.464;2023-04-08T11:59:17;102344.78;;;22.22;30.91
55187;BME280;55457;52.002;5.464;2023-04-08T12:01:43;102351.09;;;22.16;30.95
55187;BME280;55457;52.002;5.464;2023-04-08T12:04:09;102356.94;;;22.12;30.87
55187;BME280;55457;52.002;5.464;2023-04-08T12:06:34;102348.59;;;22.07;31.11
55187;BME280;55457;52.002;5.464;2023-04-08T12:09:00;102344.88;;;22.02;31.18
55187;BME280;55457;52.002;5.464;2023-04-08T12:11:25;102358.66;;;22.00;31.03
55187;BME280;55457;52.002;5.464;2023-04-08T12:13:50;102349.28;;;21.96;30.68
55187;BME280;55457;52.002;5.464;2023-04-08T12:16:16;102349.75;;;21.93;30.75
55187;BME280;55457;52.002;5.464;2023-04-08T12:18:42;102358.09;;;21.92;30.93
55187;BME280;55457;52.002;5.464;2023-04-08T12:21:07;102350.59;;;21.87;30.53
55187;BME280;55457;52.002;5.464;2023-04-08T12:23:32;102358.13;;;21.85;30.61
55187;BME280;55457;52.002;5.464;2023-04-08T12:25:57;102344.97;;;21.82;30.36
55187;BME280;55457;52.002;5.464;2023-04-08T12:28:23;102335.41;;;21.79;30.47
55187;BME280;55457;52.002;5.464;2023-04-08T12:30:48;102337.50;;;21.77;30.11
55187;BME280;55457;52.002;5.464;2023-04-08T12:33:13;102340.41;;;21.76;30.53
55187;BME280;55457;52.002;5.464;2023-04-08T12:35:38;102342.53;;;21.74;30.33
55187;BME280;55457;52.002;5.464;2023-04-08T12:38:04;102347.34;;;21.72;29.88
55187;BME280;55457;52.002;5.464;2023-04-08T12:40:29;102345.44;;;21.79;30.02
55187;BME280;55457;52.002;5.464;2023-04-08T12:42:54;102350.41;;;21.82;30.55
55187;BME280;55457;52.002;5.464;2023-04-08T12:45:19;102345.38;;;21.85;31.18
55187;BME280;55457;52.002;5.464;2023-04-08T12:47:45;102343.69;;;21.91;31.57
55187;BME280;55457;52.002;5.464;2023-04-08T12:50:10;102349.28;;;21.96;31.80
55187;BME280;55457;52.002;5.464;2023-04-08T12:52:35;102347.59;;;22.02;32.09
55187;BME280;55457;52.002;5.464;2023-04-08T12:55:00;102350.69;;;22.05;32.28
55187;BME280;55457;52.002;5.464;2023-04-08T12:57:26;102351.94;;;22.09;32.29
55187;BME280;55457;52.002;5.464;2023-04-08T12:59:52;102346.50;;;22.09;32.44
55187;BME280;55457;52.002;5.464;2023-04-08T13:02:17;102346.09;;;22.12;32.49
55187;BME280;55457;52.002;5.464;2023-04-08T13:04:42;102340.66;;;22.12;32.64